Share

Cleveland, MS (38732)

Cleveland Municipal (KRNV) Elev 138 ft | 33.76 °N, 90.76 °W | Change Station

Current weather conditions updated 12 minutes ago

Scattered Clouds
Scattered Clouds
59 °F
Feels Like 59 °F
N
5
Wind Variable Wind from East
Sunrise 6:29 AM
Sunset 7:35 PM
Moon Waning Gibbous

Tomorrow is forecast to be Warmer than today.

Pressure 30.20 in
Visibility 10.0 miles
Clouds Scattered Clouds 11000 ft
Dew Point 53 °F
Humidity 80%
Rainfall 0.00 in
Snow Depth Not available.
UV 0 out of 16
Pollen 9.70 out of 12
Air Quality Not available.
Flu Activity No Activity
METAR KRNV 180435Z AUTO 09004KT 10SM VCTS SCT110 15/12 A3020 RMK AO2 LTG DSNT S AND NW T01490115

More Conditions Fewer Conditions

Pressure 30.20 in
Visibility 10.0 miles
Clouds Scattered Clouds 11000 ft
Dew Point 53 °F
Humidity 80%
Rainfall 0.00 in
Snow Depth Not available.
UV 0 out of 16
Pollen 9.70 out of 12
Air Quality Not available.
Flu Activity No Activity
METAR KRNV 180435Z AUTO 09004KT 10SM VCTS SCT110 15/12 A3020 RMK AO2 LTG DSNT S AND NW T01490115

More Conditions Fewer Conditions

10-Day Forecast

Almanac

Astronomy

Apr. 17, 2014 Rise Set
Actual Time 6:29 AM CDT 7:35 PM CDT
Civil Twilight 6:04 AM CDT 8:01 PM CDT
Nautical Twilight 5:33 AM CDT 8:31 PM CDT
Astronomical Twilight 5:01 AM CDT 9:03 PM CDT
Moon 10:15 PM CDT (4/17) 8:06 AM CDT (4/17)
Length of Visible Light 13h 57m
Length of Day
13h 05m
Tomorrow will be 1m 58s longer.
Waning Gibbous, 90% of the Moon is Illuminated
Apr 18
Waning Gibbous
Apr 22
Last Quarter
Apr 29
New
May 6
First Quarter
May 14
Full

Yesterday's Extremes

State Highs State Lows

Community

  • SUNRISE THROUGH THE TREES.
    SUNRISE THROUGH THE TREES.
  • Dog Wood Blossoms
    Dog Wood Blossoms
  • Morning Light
    Morning Light
  • New Day
    New Day
  • Lake Michigan Sunrise
    Lake Michigan Sunrise

WunderPhotos

Upload Photos

1,702,258 photos uploaded!

WunderBlogs® & News

Nearby

Snow Depth

Station Depth Elevation
No new snow has been reported.

Coastal Water Temperatures

Place Temperature
No Stations Reporting

Earthquake Activity

City Distance Mag. Time & Date
No recent earthquake activity has been reported nearby.
Minimum magnitude displayed is 2.5.

Nearby Weather Stations

Station Location Temp. Dew Point Humidity Wind Precip. Elev Updated Type
KC4ECB Amature Radio Station on Old Tall, Minter City, MS 57.4 °F 52 °F 82% East  at  0.0 mph 0.00 in / hr 135 ft 11:42 PM CDT Normal

Show More Stations Show Fewer Stations

What do you think?

We're not finished. Please let us know what you like, what you don't like, and what you are still missing.